Time;durP1;ratioP1;P1;durP2;ratioP2;P2;SDS_P1;SDS_P2;PMS_P1;PMS_P2;Temp;Humidity;BMP_temperature;BMP_pressure;BME280_temperature;BME280_humidity;BME280_pressure;Samples;Min_cycle;Max_cycle;Signal;HPM_P1;HPM_P2
2021/06/04 00:02:15;;;;;;;8.80;7.93;;;;;;;;;;5022760;28;20458;-81
2021/06/04 00:04:44;;;;;;;9.10;8.20;;;;;;;;;;5035735;28;20811;-80
2021/06/04 00:07:10;;;;;;;10.60;7.67;;;;;;;;;;5033261;28;20461;-84
2021/06/04 00:09:40;;;;;;;9.17;7.47;;;;;;;;;;5031610;28;21086;-82
2021/06/04 00:12:09;;;;;;;7.93;7.23;;;;;;;;;;5030264;28;20453;-81
2021/06/04 00:14:39;;;;;;;8.47;7.67;;;;;;;;;;5032400;28;20493;-78
2021/06/04 00:17:09;;;;;;;9.47;8.40;;;;;;;;;;5015098;28;20466;-82
2021/06/04 00:19:36;;;;;;;10.87;8.43;;;;;;;;;;5016708;28;21509;-81
2021/06/04 00:22:05;;;;;;;11.87;8.17;;;;;;;;;;5030004;28;21062;-79
2021/06/04 00:24:34;;;;;;;7.97;7.27;;;;;;;;;;5015909;28;20462;-78
2021/06/04 00:27:02;;;;;;;9.13;8.23;;;;;;;;;;5032766;28;20469;-80
2021/06/04 00:29:30;;;;;;;8.53;7.60;;;;;;;;;;5038043;28;20469;-81
2021/06/04 00:31:57;;;;;;;8.80;7.90;;;;;;;;;;5031022;28;20501;-80
2021/06/04 00:34:26;;;;;;;8.23;7.43;;;;;;;;;;5030357;28;20453;-83
2021/06/04 00:36:53;;;;;;;8.67;7.90;;;;;;;;;;5031100;28;20459;-78
2021/06/04 00:39:21;;;;;;;11.50;7.17;;;;;;;;;;5011396;28;20824;-79
2021/06/04 00:41:50;;;;;;;8.23;7.50;;;;;;;;;;5006487;28;20948;-78
2021/06/04 00:44:18;;;;;;;8.90;8.00;;;;;;;;;;5010991;28;20527;-82
2021/06/04 00:46:45;;;;;;;10.93;7.07;;;;;;;;;;5004426;28;20481;-80
2021/06/04 00:49:13;;;;;;;8.40;7.60;;;;;;;;;;5017677;28;20527;-78
2021/06/04 00:51:46;;;;;;;7.70;6.90;;;;;;;;;;5010468;28;20599;-79
2021/06/04 00:54:15;;;;;;;8.47;7.50;;;;;;;;;;5029860;28;20462;-79
2021/06/04 00:56:42;;;;;;;8.80;7.90;;;;;;;;;;5032000;28;20446;-80
2021/06/04 00:59:13;;;;;;;8.90;7.87;;;;;;;;;;5019562;28;20492;-79
2021/06/04 01:01:40;;;;;;;7.20;6.50;;;;;;;;;;5030533;28;20457;-78
2021/06/04 01:04:09;;;;;;;7.67;6.87;;;;;;;;;;5035642;28;20511;-78
2021/06/04 01:06:39;;;;;;;9.50;7.50;;;;;;;;;;5028322;28;20491;-78
2021/06/04 01:09:21;;;;;;;9.80;7.40;;;;;;;;;;5006233;28;20999;-81
2021/06/04 01:11:53;;;;;;;9.80;7.60;;;;;;;;;;5024253;28;20457;-81
2021/06/04 01:14:23;;;;;;;9.53;7.43;;;;;;;;;;5007696;28;20461;-80
2021/06/04 01:16:57;;;;;;;9.80;8.83;;;;;;;;;;5017084;28;20471;-79
2021/06/04 01:19:32;;;;;;;9.23;8.20;;;;;;;;;;5031988;28;20482;-79
2021/06/04 01:22:00;;;;;;;10.20;9.20;;;;;;;;;;5019346;28;20522;-79
2021/06/04 01:24:38;;;;;;;10.80;8.73;;;;;;;;;;5010818;28;20462;-81
2021/06/04 01:27:09;;;;;;;13.10;9.70;;;;;;;;;;5029103;28;20494;-79
2021/06/04 01:29:39;;;;;;;13.90;8.30;;;;;;;;;;5004890;28;20483;-79
2021/06/04 01:32:11;;;;;;;8.77;7.93;;;;;;;;;;5027215;28;21030;-78
2021/06/04 01:34:40;;;;;;;10.40;8.83;;;;;;;;;;5030413;28;20454;-80
2021/06/04 01:37:10;;;;;;;10.17;8.90;;;;;;;;;;5011695;28;20461;-81
2021/06/04 01:39:38;;;;;;;10.23;8.47;;;;;;;;;;5029304;28;20502;-81
2021/06/04 01:42:08;;;;;;;11.07;9.17;;;;;;;;;;5023509;28;20465;-78
2021/06/04 01:44:39;;;;;;;13.80;9.33;;;;;;;;;;5020651;28;20457;-80
2021/06/04 01:47:07;;;;;;;10.07;8.57;;;;;;;;;;5028502;28;20531;-80
2021/06/04 01:49:36;;;;;;;10.80;9.70;;;;;;;;;;5026388;28;20480;-80
2021/06/04 01:52:07;;;;;;;13.67;9.10;;;;;;;;;;5008913;28;20520;-81
2021/06/04 01:54:38;;;;;;;11.23;9.00;;;;;;;;;;5030031;28;20854;-81
2021/06/04 01:57:12;;;;;;;9.93;9.03;;;;;;;;;;5005262;28;20488;-78
2021/06/04 01:59:48;;;;;;;8.93;7.97;;;;;;;;;;5034796;28;20563;-80
2021/06/04 02:02:15;;;;;;;11.30;9.40;;;;;;;;;;5014435;28;20464;-80
2021/06/04 02:04:44;;;;;;;10.10;9.10;;;;;;;;;;5017586;28;20553;-79
2021/06/04 02:07:12;;;;;;;10.87;8.50;;;;;;;;;;5011733;28;20458;-80
2021/06/04 02:09:39;;;;;;;9.60;8.60;;;;;;;;;;5012660;28;20492;-79
2021/06/04 02:12:07;;;;;;;9.50;8.60;;;;;;;;;;5027073;28;20774;-80
2021/06/04 02:14:39;;;;;;;13.43;9.27;;;;;;;;;;5021227;28;20449;-78
2021/06/04 02:17:13;;;;;;;12.10;9.70;;;;;;;;;;5011597;28;20564;-80
2021/06/04 02:19:47;;;;;;;10.50;9.40;;;;;;;;;;5016368;28;20693;-79
2021/06/04 02:22:18;;;;;;;14.67;9.07;;;;;;;;;;5022589;28;20938;-80
2021/06/04 02:24:48;;;;;;;10.60;9.10;;;;;;;;;;5028532;28;20432;-79
2021/06/04 02:27:19;;;;;;;10.47;9.37;;;;;;;;;;5024429;28;20465;-80
2021/06/04 02:29:49;;;;;;;9.90;8.90;;;;;;;;;;5014824;28;20496;-82
2021/06/04 02:32:18;;;;;;;9.50;8.70;;;;;;;;;;5000577;28;20475;-79
2021/06/04 02:34:47;;;;;;;11.03;8.87;;;;;;;;;;5015254;28;20458;-82
2021/06/04 02:37:16;;;;;;;11.00;8.60;;;;;;;;;;5032803;28;20553;-79
2021/06/04 02:39:45;;;;;;;9.83;8.10;;;;;;;;;;5001359;28;20493;-80
2021/06/04 02:42:13;;;;;;;11.73;7.80;;;;;;;;;;5027488;28;20465;-80
2021/06/04 02:44:42;;;;;;;11.13;8.60;;;;;;;;;;5030386;28;20461;-81
2021/06/04 02:47:11;;;;;;;8.70;7.90;;;;;;;;;;5027214;28;20465;-80
2021/06/04 02:49:39;;;;;;;9.37;8.47;;;;;;;;;;5027391;28;20486;-79
2021/06/04 02:52:09;;;;;;;12.13;8.07;;;;;;;;;;5031545;28;21006;-78
2021/06/04 02:54:39;;;;;;;9.90;8.90;;;;;;;;;;5011890;28;20473;-80
2021/06/04 02:57:07;;;;;;;9.77;8.67;;;;;;;;;;5007325;28;20461;-81
2021/06/04 02:59:36;;;;;;;9.37;8.40;;;;;;;;;;5015770;28;20460;-79
2021/06/04 03:02:04;;;;;;;8.53;7.60;;;;;;;;;;5026690;28;20469;-81
2021/06/04 03:04:46;;;;;;;9.10;8.20;;;;;;;;;;5011008;28;20484;-82
2021/06/04 03:07:16;;;;;;;9.20;8.30;;;;;;;;;;5027901;28;20477;-80
2021/06/04 03:09:44;;;;;;;12.83;9.17;;;;;;;;;;5015467;28;20484;-80
2021/06/04 03:12:16;;;;;;;10.63;8.53;;;;;;;;;;5033989;28;20459;-83
2021/06/04 03:14:44;;;;;;;9.90;8.90;;;;;;;;;;5023143;28;20436;-79
2021/06/04 03:17:12;;;;;;;9.60;8.70;;;;;;;;;;5020983;28;20493;-79
2021/06/04 03:19:39;;;;;;;12.33;8.73;;;;;;;;;;5011762;28;20496;-79
2021/06/04 03:22:08;;;;;;;9.00;8.10;;;;;;;;;;5029426;28;20494;-81
2021/06/04 03:24:37;;;;;;;8.70;7.90;;;;;;;;;;5022790;28;20481;-82
2021/06/04 03:27:05;;;;;;;10.57;9.33;;;;;;;;;;5030589;28;20454;-81
2021/06/04 03:29:32;;;;;;;10.47;9.43;;;;;;;;;;5016799;28;20488;-82
2021/06/04 03:32:00;;;;;;;9.63;8.77;;;;;;;;;;5035965;28;20547;-81
2021/06/04 03:34:28;;;;;;;10.00;8.97;;;;;;;;;;5007275;28;21337;-82
2021/06/04 03:36:59;;;;;;;12.13;9.23;;;;;;;;;;5030505;28;20444;-80
2021/06/04 03:39:27;;;;;;;10.80;9.03;;;;;;;;;;5013617;28;21041;-80
2021/06/04 03:41:55;;;;;;;12.93;9.03;;;;;;;;;;5025005;28;20454;-80
2021/06/04 03:44:27;;;;;;;10.30;9.30;;;;;;;;;;5026104;28;20469;-81
2021/06/04 03:46:54;;;;;;;14.30;9.60;;;;;;;;;;5019289;28;20857;-81
2021/06/04 03:49:23;;;;;;;13.30;9.30;;;;;;;;;;5013050;28;20497;-81
2021/06/04 03:51:51;;;;;;;10.37;9.37;;;;;;;;;;5030583;28;20454;-81
2021/06/04 03:54:20;;;;;;;9.10;8.20;;;;;;;;;;5022957;28;20497;-81
2021/06/04 03:56:48;;;;;;;10.83;9.73;;;;;;;;;;5025822;28;20436;-78
2021/06/04 03:59:16;;;;;;;11.70;10.50;;;;;;;;;;5028091;28;21043;-79
2021/06/04 04:01:44;;;;;;;11.40;10.30;;;;;;;;;;5024311;28;20454;-80
2021/06/04 04:04:11;;;;;;;10.63;9.60;;;;;;;;;;5020064;28;20492;-78
2021/06/04 04:06:39;;;;;;;15.17;9.80;;;;;;;;;;5026675;28;20480;-79
2021/06/04 04:09:07;;;;;;;10.07;9.07;;;;;;;;;;5036261;28;20476;-82
2021/06/04 04:11:34;;;;;;;10.53;9.43;;;;;;;;;;5017651;28;20462;-82
2021/06/04 04:14:01;;;;;;;11.43;10.10;;;;;;;;;;5025679;28;20516;-78
2021/06/04 04:16:29;;;;;;;12.57;10.10;;;;;;;;;;5032024;28;20460;-82
2021/06/04 04:18:56;;;;;;;12.57;11.27;;;;;;;;;;5028474;28;20493;-83
2021/06/04 04:21:26;;;;;;;17.07;10.97;;;;;;;;;;5022329;28;21492;-80
2021/06/04 04:23:54;;;;;;;13.73;12.33;;;;;;;;;;5034395;28;20457;-82
2021/06/04 04:26:23;;;;;;;14.50;11.37;;;;;;;;;;5015186;28;20477;-80
2021/06/04 04:28:50;;;;;;;11.63;10.43;;;;;;;;;;5032943;28;20478;-79
2021/06/04 04:31:19;;;;;;;11.53;10.37;;;;;;;;;;5031024;28;20455;-79
2021/06/04 04:33:47;;;;;;;12.03;9.77;;;;;;;;;;5017052;28;20453;-78
2021/06/04 04:36:15;;;;;;;12.40;10.20;;;;;;;;;;5032237;28;20466;-77
2021/06/04 04:38:42;;;;;;;12.23;10.77;;;;;;;;;;5024464;28;20538;-78
2021/06/04 04:41:09;;;;;;;12.40;11.20;;;;;;;;;;5031133;28;20436;-79
2021/06/04 04:43:37;;;;;;;13.33;10.73;;;;;;;;;;5014014;28;20570;-79
2021/06/04 04:46:05;;;;;;;13.43;11.50;;;;;;;;;;5010188;28;20473;-80
2021/06/04 04:48:32;;;;;;;12.77;11.40;;;;;;;;;;5036594;28;21040;-79
2021/06/04 04:51:01;;;;;;;11.17;10.03;;;;;;;;;;5004076;28;20484;-81
2021/06/04 04:53:28;;;;;;;12.10;10.80;;;;;;;;;;5028824;28;20544;-80
2021/06/04 04:55:55;;;;;;;11.23;10.23;;;;;;;;;;5031209;28;20450;-78
2021/06/04 04:58:22;;;;;;;12.10;10.90;;;;;;;;;;5018186;28;20482;-77
2021/06/04 05:00:49;;;;;;;16.57;11.27;;;;;;;;;;5013012;28;20531;-78
2021/06/04 05:03:17;;;;;;;12.90;11.60;;;;;;;;;;5030293;28;20470;-78
2021/06/04 05:05:44;;;;;;;12.40;11.10;;;;;;;;;;5015145;28;20814;-78
2021/06/04 05:08:12;;;;;;;14.03;12.50;;;;;;;;;;5030112;28;20474;-79
2021/06/04 05:10:40;;;;;;;13.00;11.70;;;;;;;;;;5028879;28;20472;-80
2021/06/04 05:13:08;;;;;;;14.43;12.10;;;;;;;;;;5012581;28;20469;-79
2021/06/04 05:15:37;;;;;;;12.80;11.60;;;;;;;;;;5005124;28;22006;-77
2021/06/04 05:18:04;;;;;;;13.17;11.77;;;;;;;;;;5034703;28;20436;-78
2021/06/04 05:20:31;;;;;;;12.57;11.23;;;;;;;;;;5030723;28;20491;-81
2021/06/04 05:22:58;;;;;;;12.63;11.20;;;;;;;;;;5022352;28;20478;-80
2021/06/04 05:25:32;;;;;;;12.03;10.93;;;;;;;;;;5001381;28;20453;-82
2021/06/04 05:27:59;;;;;;;11.90;10.70;;;;;;;;;;5002314;28;20543;-80
2021/06/04 05:30:28;;;;;;;12.97;11.77;;;;;;;;;;5033884;28;20542;-80
2021/06/04 05:32:55;;;;;;;12.53;11.00;;;;;;;;;;5016590;28;20465;-76
2021/06/04 05:35:22;;;;;;;12.90;11.10;;;;;;;;;;5018705;28;20549;-80
2021/06/04 05:37:49;;;;;;;11.70;9.60;;;;;;;;;;5024369;28;20485;-83
2021/06/04 05:40:17;;;;;;;12.00;10.77;;;;;;;;;;5012430;28;20823;-80
2021/06/04 05:42:45;;;;;;;17.13;10.70;;;;;;;;;;5023906;28;20461;-80
2021/06/04 05:45:13;;;;;;;11.53;10.40;;;;;;;;;;5035325;28;20954;-80
2021/06/04 05:47:40;;;;;;;12.77;10.90;;;;;;;;;;5029026;28;20833;-79
2021/06/04 05:50:11;;;;;;;11.60;10.40;;;;;;;;;;5029482;28;20474;-79
2021/06/04 05:52:38;;;;;;;12.47;11.20;;;;;;;;;;5011965;28;20561;-80
2021/06/04 05:55:06;;;;;;;12.03;10.00;;;;;;;;;;5022570;28;20454;-80
2021/06/04 05:57:32;;;;;;;10.97;9.93;;;;;;;;;;5030170;28;21010;-79
2021/06/04 06:00:00;;;;;;;11.53;9.23;;;;;;;;;;5032733;28;20991;-78
2021/06/04 06:02:27;;;;;;;11.63;10.43;;;;;;;;;;5030890;28;20868;-80
2021/06/04 06:04:54;;;;;;;12.53;10.90;;;;;;;;;;5026723;28;20454;-80
2021/06/04 06:07:21;;;;;;;12.30;10.13;;;;;;;;;;5023886;28;20812;-79
2021/06/04 06:09:48;;;;;;;11.73;8.77;;;;;;;;;;5019544;28;20485;-79
2021/06/04 06:12:14;;;;;;;12.00;9.43;;;;;;;;;;5020102;28;20923;-81
2021/06/04 06:14:41;;;;;;;10.73;9.73;;;;;;;;;;5029812;28;20469;-81
2021/06/04 06:17:09;;;;;;;10.20;9.10;;;;;;;;;;5024171;28;20458;-80
2021/06/04 06:19:36;;;;;;;11.93;10.73;;;;;;;;;;5025192;28;20986;-78
2021/06/04 06:22:04;;;;;;;10.30;9.30;;;;;;;;;;5031623;28;20485;-80
2021/06/04 06:24:30;;;;;;;10.80;9.47;;;;;;;;;;5028682;28;20500;-79
2021/06/04 06:26:58;;;;;;;12.10;10.90;;;;;;;;;;5027477;28;20454;-78
2021/06/04 06:29:27;;;;;;;12.00;10.90;;;;;;;;;;5017015;28;20477;-78
2021/06/04 06:31:54;;;;;;;11.67;10.57;;;;;;;;;;5006755;28;20488;-79
2021/06/04 06:34:22;;;;;;;14.77;10.60;;;;;;;;;;5017843;28;20465;-81
2021/06/04 06:36:49;;;;;;;12.43;11.23;;;;;;;;;;5027544;28;20489;-80
2021/06/04 06:39:17;;;;;;;11.43;10.23;;;;;;;;;;5010699;28;20493;-79
2021/06/04 06:41:45;;;;;;;10.47;9.07;;;;;;;;;;5002478;28;20466;-80
2021/06/04 06:44:12;;;;;;;10.77;9.67;;;;;;;;;;5020470;28;20526;-82
2021/06/04 06:46:40;;;;;;;11.77;9.60;;;;;;;;;;5033025;28;20473;-81
2021/06/04 06:49:06;;;;;;;11.50;10.50;;;;;;;;;;5027948;28;20482;-83
2021/06/04 06:51:36;;;;;;;11.17;10.27;;;;;;;;;;5015430;28;20461;-79
2021/06/04 06:54:04;;;;;;;11.00;9.90;;;;;;;;;;5005188;28;20500;-80
2021/06/04 06:56:30;;;;;;;12.20;10.23;;;;;;;;;;5031890;28;20552;-81
2021/06/04 06:58:57;;;;;;;10.47;9.60;;;;;;;;;;5027000;28;20498;-80
2021/06/04 07:01:24;;;;;;;11.20;10.20;;;;;;;;;;5023228;28;20493;-82
2021/06/04 07:03:51;;;;;;;11.07;9.97;;;;;;;;;;5026378;28;20455;-79
2021/06/04 07:06:18;;;;;;;10.77;9.87;;;;;;;;;;5030874;28;20454;-79
2021/06/04 07:08:47;;;;;;;10.57;9.53;;;;;;;;;;5030932;28;20474;-79
2021/06/04 07:11:14;;;;;;;11.17;10.07;;;;;;;;;;5028284;28;20466;-80
2021/06/04 07:13:41;;;;;;;9.10;8.20;;;;;;;;;;5029979;28;20453;-79
2021/06/04 07:16:10;;;;;;;9.77;8.77;;;;;;;;;;5003214;28;20488;-78
2021/06/04 07:18:38;;;;;;;9.27;8.47;;;;;;;;;;5003489;28;20488;-78
2021/06/04 07:21:05;;;;;;;10.40;9.27;;;;;;;;;;5028927;28;20462;-78
2021/06/04 07:23:32;;;;;;;11.27;10.13;;;;;;;;;;5028858;28;20461;-79
2021/06/04 07:26:01;;;;;;;10.90;9.20;;;;;;;;;;5037409;28;20463;-78
2021/06/04 07:28:28;;;;;;;10.37;9.30;;;;;;;;;;5031086;28;20465;-79
2021/06/04 07:30:56;;;;;;;9.53;8.63;;;;;;;;;;5024016;28;20482;-78
2021/06/04 07:33:24;;;;;;;10.90;9.07;;;;;;;;;;5015382;28;20468;-80
2021/06/04 07:35:53;;;;;;;10.40;9.30;;;;;;;;;;5010112;28;20801;-78
2021/06/04 07:38:21;;;;;;;10.60;9.50;;;;;;;;;;5024714;28;20462;-79
2021/06/04 07:40:47;;;;;;;10.37;9.27;;;;;;;;;;5019231;28;20456;-79
2021/06/04 07:43:17;;;;;;;12.20;10.40;;;;;;;;;;5038152;28;20461;-79
2021/06/04 07:45:45;;;;;;;12.83;11.53;;;;;;;;;;5023984;28;20527;-79
2021/06/04 07:48:13;;;;;;;11.10;9.77;;;;;;;;;;5032416;28;20458;-81
2021/06/04 07:50:41;;;;;;;10.37;9.40;;;;;;;;;;5009469;28;20541;-78
2021/06/04 07:53:08;;;;;;;12.37;10.10;;;;;;;;;;5007863;28;20465;-79
2021/06/04 07:55:35;;;;;;;10.50;9.33;;;;;;;;;;5040879;28;20555;-79
2021/06/04 07:58:02;;;;;;;10.13;9.07;;;;;;;;;;5031576;28;20724;-80
2021/06/04 08:00:31;;;;;;;12.60;9.67;;;;;;;;;;5025477;28;20497;-79
2021/06/04 08:03:00;;;;;;;11.00;8.83;;;;;;;;;;5031486;28;20519;-78
2021/06/04 08:05:27;;;;;;;10.90;9.90;;;;;;;;;;5013062;28;20828;-78
2021/06/04 08:07:54;;;;;;;12.40;11.20;;;;;;;;;;5035847;28;20461;-79
2021/06/04 08:10:21;;;;;;;11.07;9.80;;;;;;;;;;5009649;28;20477;-80
2021/06/04 08:12:48;;;;;;;12.73;11.40;;;;;;;;;;5026995;28;20454;-80
2021/06/04 08:15:18;;;;;;;12.27;10.90;;;;;;;;;;5029960;28;20507;-78
2021/06/04 08:17:46;;;;;;;11.20;9.70;;;;;;;;;;5028595;28;20889;-80
2021/06/04 08:20:16;;;;;;;10.10;9.10;;;;;;;;;;5030457;28;21073;-79
2021/06/04 08:22:43;;;;;;;11.00;9.83;;;;;;;;;;5005668;28;20485;-80
2021/06/04 08:25:10;;;;;;;12.30;11.03;;;;;;;;;;5005531;28;20474;-78
2021/06/04 08:27:37;;;;;;;9.73;8.73;;;;;;;;;;5000593;28;20506;-80
2021/06/04 08:30:05;;;;;;;10.13;8.40;;;;;;;;;;5016216;28;20487;-79
2021/06/04 08:32:33;;;;;;;11.70;7.70;;;;;;;;;;5018806;28;20458;-79
2021/06/04 08:35:01;;;;;;;11.30;9.10;;;;;;;;;;5003106;28;20451;-79
2021/06/04 08:37:28;;;;;;;9.73;8.80;;;;;;;;;;5008683;28;20964;-78
2021/06/04 08:39:54;;;;;;;9.00;8.10;;;;;;;;;;5004735;28;20527;-81
2021/06/04 08:42:28;;;;;;;12.07;9.67;;;;;;;;;;5011203;28;20458;-78
2021/06/04 08:44:58;;;;;;;9.10;8.17;;;;;;;;;;5011957;28;21565;-79
2021/06/04 08:47:27;;;;;;;10.03;8.27;;;;;;;;;;5003718;28;20944;-80
2021/06/04 08:50:02;;;;;;;9.10;8.20;;;;;;;;;;5010674;28;20476;-80
2021/06/04 08:52:33;;;;;;;9.10;6.90;;;;;;;;;;5008812;28;20854;-79
2021/06/04 08:55:04;;;;;;;8.00;7.23;;;;;;;;;;5016908;28;20458;-79
2021/06/04 08:57:36;;;;;;;8.87;8.13;;;;;;;;;;5009488;28;21118;-79
2021/06/04 09:02:34;;;;;;;8.87;7.93;;;;;;;;;;5009836;28;20465;-80
2021/06/04 09:05:05;;;;;;;9.90;8.20;;;;;;;;;;5002368;28;20195;-79
2021/06/04 09:07:34;;;;;;;9.83;8.83;;;;;;;;;;5005468;28;21887;-78
2021/06/04 09:10:04;;;;;;;11.70;9.40;;;;;;;;;;5000677;28;20474;-81
2021/06/04 09:12:35;;;;;;;12.07;10.70;;;;;;;;;;4999616;28;20469;-79
2021/06/04 09:15:02;;;;;;;9.80;8.70;;;;;;;;;;5003597;28;20455;-79
2021/06/04 09:17:32;;;;;;;9.70;7.53;;;;;;;;;;5005985;28;20479;-81
2021/06/04 09:20:05;;;;;;;9.13;7.97;;;;;;;;;;5002882;28;20487;-78
2021/06/04 09:22:36;;;;;;;10.33;9.33;;;;;;;;;;5012269;28;20487;-80
2021/06/04 09:25:04;;;;;;;13.43;10.17;;;;;;;;;;5009522;28;20451;-80
2021/06/04 09:27:33;;;;;;;9.87;8.40;;;;;;;;;;5011894;28;20797;-79
2021/06/04 09:30:09;;;;;;;10.47;8.43;;;;;;;;;;5015708;28;20466;-80
2021/06/04 09:32:39;;;;;;;13.60;9.63;;;;;;;;;;5001321;28;20463;-79
2021/06/04 09:35:10;;;;;;;8.90;7.63;;;;;;;;;;5007968;28;20463;-81
2021/06/04 09:37:39;;;;;;;8.60;7.37;;;;;;;;;;4998249;28;20459;-80
2021/06/04 09:40:19;;;;;;;8.30;7.50;;;;;;;;;;5011076;28;20494;-80
2021/06/04 09:42:50;;;;;;;12.13;9.93;;;;;;;;;;5011948;28;20467;-78
2021/06/04 09:45:23;;;;;;;10.63;9.00;;;;;;;;;;5008314;28;20825;-79
2021/06/04 09:48:00;;;;;;;15.27;8.70;;;;;;;;;;5006133;28;20945;-78
2021/06/04 09:50:31;;;;;;;13.67;10.00;;;;;;;;;;5007031;28;20489;-78
2021/06/04 09:53:05;;;;;;;9.87;8.90;;;;;;;;;;5014853;28;20450;-80
2021/06/04 09:55:33;;;;;;;13.90;11.83;;;;;;;;;;5008733;28;20459;-80
2021/06/04 09:58:01;;;;;;;10.53;9.30;;;;;;;;;;5003538;28;20455;-81
2021/06/04 10:00:30;;;;;;;9.60;8.60;;;;;;;;;;5008114;28;20487;-82
2021/06/04 10:03:05;;;;;;;12.50;9.80;;;;;;;;;;5005236;28;20459;-79
2021/06/04 10:05:33;;;;;;;13.10;11.43;;;;;;;;;;5006560;28;20454;-80
2021/06/04 10:08:00;;;;;;;10.13;9.13;;;;;;;;;;5010489;28;20460;-80
2021/06/04 10:10:30;;;;;;;11.37;10.30;;;;;;;;;;5002086;28;20536;-80
2021/06/04 10:12:59;;;;;;;15.83;14.23;;;;;;;;;;5006656;28;20466;-78
2021/06/04 10:15:28;;;;;;;22.03;12.57;;;;;;;;;;5007764;28;20462;-80
2021/06/04 10:18:01;;;;;;;15.97;13.40;;;;;;;;;;5007200;28;20470;-79
2021/06/04 10:20:30;;;;;;;13.13;11.77;;;;;;;;;;5013438;28;20489;-78
2021/06/04 10:23:02;;;;;;;13.47;11.77;;;;;;;;;;5008514;28;20470;-78
2021/06/04 10:25:37;;;;;;;14.40;12.70;;;;;;;;;;5006028;28;20470;-79
2021/06/04 10:28:04;;;;;;;15.57;11.93;;;;;;;;;;5000836;28;20553;-77
2021/06/04 10:30:42;;;;;;;15.83;14.10;;;;;;;;;;5001276;28;20569;-81
2021/06/04 10:33:12;;;;;;;13.47;12.07;;;;;;;;;;5009190;28;20463;-79
2021/06/04 10:35:40;;;;;;;12.20;11.00;;;;;;;;;;5013134;28;20449;-80
2021/06/04 10:38:13;;;;;;;11.27;10.17;;;;;;;;;;5015691;28;20462;-79
2021/06/04 10:40:45;;;;;;;11.50;9.93;;;;;;;;;;5004412;28;20487;-79
2021/06/04 10:43:21;;;;;;;11.60;10.50;;;;;;;;;;5007784;28;20486;-79
2021/06/04 10:45:51;;;;;;;13.87;11.63;;;;;;;;;;5007638;28;20455;-79
2021/06/04 10:48:27;;;;;;;9.23;8.40;;;;;;;;;;5005511;28;20463;-78
2021/06/04 10:50:56;;;;;;;13.13;11.40;;;;;;;;;;5016724;28;20820;-79
2021/06/04 10:53:28;;;;;;;10.13;9.13;;;;;;;;;;4997931;28;20940;-79
2021/06/04 10:55:59;;;;;;;11.70;10.50;;;;;;;;;;4995341;28;20461;-78
2021/06/04 10:58:37;;;;;;;11.17;9.93;;;;;;;;;;5000121;28;20462;-80
2021/06/04 11:01:05;;;;;;;10.10;9.10;;;;;;;;;;5009115;28;20490;-79
2021/06/04 11:03:34;;;;;;;11.70;9.87;;;;;;;;;;5004990;28;20566;-80
2021/06/04 11:06:05;;;;;;;11.00;8.70;;;;;;;;;;5009087;28;20473;-79
2021/06/04 11:08:39;;;;;;;11.53;9.77;;;;;;;;;;5001959;28;20564;-78
2021/06/04 11:11:10;;;;;;;10.53;9.47;;;;;;;;;;5008024;28;20497;-78
2021/06/04 11:13:48;;;;;;;10.40;9.40;;;;;;;;;;5003285;28;20470;-77
2021/06/04 11:16:19;;;;;;;11.70;9.50;;;;;;;;;;4996298;28;20503;-77
2021/06/04 11:18:48;;;;;;;9.50;8.67;;;;;;;;;;5008997;28;20479;-78
2021/06/04 11:21:24;;;;;;;11.13;10.13;;;;;;;;;;5010246;28;20989;-79
2021/06/04 11:23:53;;;;;;;11.57;9.37;;;;;;;;;;5026559;28;20458;-77
2021/06/04 11:26:24;;;;;;;9.90;9.00;;;;;;;;;;5020002;28;20468;-79
2021/06/04 11:28:55;;;;;;;9.70;8.80;;;;;;;;;;5010320;28;20998;-81
2021/06/04 11:31:25;;;;;;;9.63;8.70;;;;;;;;;;5029193;28;20468;-80
2021/06/04 11:33:54;;;;;;;8.77;7.80;;;;;;;;;;5009195;28;20525;-81
2021/06/04 11:36:23;;;;;;;10.67;9.27;;;;;;;;;;5006108;28;20457;-78
2021/06/04 11:38:52;;;;;;;8.33;7.50;;;;;;;;;;5010275;28;20839;-79
2021/06/04 11:41:21;;;;;;;9.17;8.27;;;;;;;;;;5009096;28;20468;-81
2021/06/04 11:43:51;;;;;;;9.20;8.30;;;;;;;;;;5021180;28;20454;-79
2021/06/04 11:46:20;;;;;;;15.37;10.10;;;;;;;;;;5031455;28;20450;-79
2021/06/04 11:49:00;;;;;;;10.00;8.50;;;;;;;;;;5007626;28;20500;-79
2021/06/04 11:51:30;;;;;;;10.33;9.33;;;;;;;;;;5026691;28;20461;-80
2021/06/04 11:53:57;;;;;;;11.00;9.10;;;;;;;;;;5030890;28;20544;-78
2021/06/04 11:56:41;;;;;;;9.60;8.57;;;;;;;;;;5022588;28;20960;-83
2021/06/04 11:59:12;;;;;;;10.33;8.30;;;;;;;;;;5030899;28;20487;-81
2021/06/04 12:01:40;;;;;;;13.70;8.53;;;;;;;;;;5035496;28;20458;-77
2021/06/04 12:04:10;;;;;;;11.00;8.90;;;;;;;;;;5026930;28;20458;-76
2021/06/04 12:06:40;;;;;;;8.63;7.83;;;;;;;;;;5025175;28;20465;-79
2021/06/04 12:09:36;;;;;;;9.07;7.83;;;;;;;;;;5027274;28;20480;-82
2021/06/04 12:12:20;;;;;;;9.90;9.00;;;;;;;;;;5010285;28;20463;-84
2021/06/04 12:15:10;;;;;;;8.67;7.77;;;;;;;;;;5023969;28;20457;-83
2021/06/04 12:17:38;;;;;;;8.93;8.23;;;;;;;;;;5019240;28;20582;-85
2021/06/04 12:20:20;;;;;;;10.40;9.53;;;;;;;;;;5031894;28;20490;-82
2021/06/04 12:22:49;;;;;;;8.90;8.20;;;;;;;;;;5002529;28;20836;-76
2021/06/04 12:25:35;;;;;;;9.90;8.87;;;;;;;;;;5012123;28;20466;-75
2021/06/04 12:28:06;;;;;;;9.53;8.33;;;;;;;;;;5019336;28;20461;-77
2021/06/04 12:30:43;;;;;;;11.03;8.80;;;;;;;;;;5005702;28;20474;-76
2021/06/04 12:33:10;;;;;;;8.80;7.90;;;;;;;;;;5020140;28;20515;-80
2021/06/04 12:35:40;;;;;;;9.23;8.43;;;;;;;;;;5028521;28;20750;-76
2021/06/04 12:38:19;;;;;;;10.67;8.47;;;;;;;;;;5012011;28;20453;-87
2021/06/04 12:40:50;;;;;;;9.13;8.23;;;;;;;;;;5017290;28;20496;-78
2021/06/04 12:43:20;;;;;;;9.13;8.33;;;;;;;;;;5016771;28;20889;-78
2021/06/04 12:45:55;;;;;;;8.90;8.00;;;;;;;;;;5031440;28;20523;-86
2021/06/04 12:48:24;;;;;;;8.47;7.20;;;;;;;;;;5030068;28;20514;-81
2021/06/04 12:51:03;;;;;;;9.20;8.30;;;;;;;;;;5023448;28;20450;-80
2021/06/04 12:53:31;;;;;;;8.73;7.97;;;;;;;;;;5007483;28;20516;-88
2021/06/04 12:56:08;;;;;;;9.80;8.43;;;;;;;;;;5033441;28;20537;-83
2021/06/04 12:58:37;;;;;;;10.10;9.10;;;;;;;;;;5017188;28;20480;-81
2021/06/04 13:01:05;;;;;;;8.77;7.97;;;;;;;;;;5028774;28;20480;-87
2021/06/04 13:03:36;;;;;;;9.03;8.13;;;;;;;;;;5025146;28;20545;-80
2021/06/04 13:06:03;;;;;;;8.43;7.60;;;;;;;;;;5022436;28;20812;-80
2021/06/04 13:08:33;;;;;;;12.00;10.40;;;;;;;;;;5023176;28;20478;-80
2021/06/04 13:11:01;;;;;;;13.57;9.70;;;;;;;;;;5005567;28;20458;-78
2021/06/04 13:13:30;;;;;;;11.83;10.73;;;;;;;;;;5010731;28;20469;-82
2021/06/04 13:16:13;;;;;;;11.07;9.10;;;;;;;;;;5002075;28;20466;-78
2021/06/04 13:18:40;;;;;;;10.37;9.47;;;;;;;;;;5028070;28;20488;-81
2021/06/04 13:21:15;;;;;;;10.07;9.17;;;;;;;;;;5030192;28;20485;-82
2021/06/04 13:23:42;;;;;;;10.33;9.30;;;;;;;;;;5017904;28;20470;-80
2021/06/04 13:26:12;;;;;;;9.30;8.40;;;;;;;;;;5018006;28;20468;-80
2021/06/04 13:28:41;;;;;;;8.77;7.90;;;;;;;;;;5037938;28;20484;-83
2021/06/04 13:31:13;;;;;;;9.90;9.00;;;;;;;;;;5030466;28;20461;-81
2021/06/04 13:33:43;;;;;;;12.00;8.63;;;;;;;;;;5022764;28;20462;-78
2021/06/04 13:36:10;;;;;;;11.83;9.50;;;;;;;;;;5022722;28;20458;-77
2021/06/04 13:38:39;;;;;;;11.40;10.30;;;;;;;;;;5031407;28;20486;-77
2021/06/04 13:41:08;;;;;;;11.60;10.43;;;;;;;;;;5012970;28;20494;-81
2021/06/04 13:43:38;;;;;;;10.03;9.10;;;;;;;;;;5004530;28;21078;-80
2021/06/04 13:46:05;;;;;;;10.83;9.13;;;;;;;;;;5014050;28;20458;-79
2021/06/04 13:48:34;;;;;;;10.90;9.90;;;;;;;;;;5016442;28;21055;-80
2021/06/04 13:51:04;;;;;;;10.47;9.40;;;;;;;;;;5011396;28;21697;-80
2021/06/04 13:53:34;;;;;;;12.53;10.60;;;;;;;;;;5012774;28;20503;-80
2021/06/04 13:56:09;;;;;;;11.53;10.53;;;;;;;;;;5026423;28;20453;-79
2021/06/04 13:58:36;;;;;;;13.40;12.00;;;;;;;;;;5026056;28;20483;-80
2021/06/04 14:01:12;;;;;;;11.57;10.53;;;;;;;;;;5025116;28;20490;-80
2021/06/04 14:03:44;;;;;;;11.50;10.40;;;;;;;;;;5014679;28;20552;-85
2021/06/04 14:06:20;;;;;;;12.07;10.93;;;;;;;;;;5030892;28;20454;-80
2021/06/04 14:09:03;;;;;;;13.53;10.57;;;;;;;;;;5008902;28;20839;-82
2021/06/04 14:11:30;;;;;;;11.77;10.57;;;;;;;;;;5011613;28;20489;-83
2021/06/04 14:14:00;;;;;;;16.37;10.80;;;;;;;;;;5011965;28;20453;-82
2021/06/04 14:16:33;;;;;;;13.57;11.37;;;;;;;;;;5006574;28;20454;-83
2021/06/04 14:19:02;;;;;;;11.90;9.67;;;;;;;;;;5019517;28;20485;-81
2021/06/04 14:21:37;;;;;;;14.57;11.27;;;;;;;;;;5011093;28;20496;-83
2021/06/04 14:24:05;;;;;;;16.03;12.00;;;;;;;;;;5012445;28;20477;-83
2021/06/04 14:26:46;;;;;;;13.07;11.20;;;;;;;;;;5000940;28;20457;-81
2021/06/04 14:29:14;;;;;;;12.20;11.13;;;;;;;;;;5027037;28;22037;-80
2021/06/04 14:31:48;;;;;;;12.70;11.40;;;;;;;;;;5029377;28;20457;-82
2021/06/04 14:34:18;;;;;;;12.57;11.27;;;;;;;;;;5023403;28;20873;-81
2021/06/04 14:36:45;;;;;;;14.30;12.80;;;;;;;;;;5020091;28;20846;-83
2021/06/04 14:39:26;;;;;;;12.00;10.90;;;;;;;;;;5022481;28;20488;-81
2021/06/04 14:41:53;;;;;;;13.00;11.80;;;;;;;;;;5020583;28;20885;-82
2021/06/04 14:44:22;;;;;;;13.47;12.07;;;;;;;;;;5020301;28;20457;-80
2021/06/04 14:46:50;;;;;;;11.47;10.30;;;;;;;;;;5025078;28;20522;-80